sensor_id;sensor_type;location;lat;lon;timestamp;pressure;altitude;pressure_sealevel;temperature;humidity
10310;BME280;5200;43.236;27.986;2023-07-08T00:01:10;99735.69;;;21.22;100.00
10310;BME280;5200;43.236;27.986;2023-07-08T00:03:38;99756.63;;;21.31;100.00
10310;BME280;5200;43.236;27.986;2023-07-08T00:06:09;99746.41;;;21.22;100.00
10310;BME280;5200;43.236;27.986;2023-07-08T00:08:38;99742.94;;;21.15;100.00
10310;BME280;5200;43.236;27.986;2023-07-08T00:11:09;99729.78;;;21.06;100.00
10310;BME280;5200;43.236;27.986;2023-07-08T00:13:36;99742.97;;;21.08;100.00
10310;BME280;5200;43.236;27.986;2023-07-08T00:16:08;99752.06;;;21.00;100.00
10310;BME280;5200;43.236;27.986;2023-07-08T00:18:36;99751.63;;;20.97;100.00
10310;BME280;5200;43.236;27.986;2023-07-08T00:21:07;99733.56;;;20.92;100.00
10310;BME280;5200;43.236;27.986;2023-07-08T00:23:35;99736.66;;;20.89;100.00
10310;BME280;5200;43.236;27.986;2023-07-08T00:26:07;99693.13;;;20.68;100.00
10310;BME280;5200;43.236;27.986;2023-07-08T00:28:35;99743.47;;;20.85;100.00
10310;BME280;5200;43.236;27.986;2023-07-08T00:31:06;99713.91;;;20.66;100.00
10310;BME280;5200;43.236;27.986;2023-07-08T00:33:34;99740.59;;;20.80;100.00
10310;BME280;5200;43.236;27.986;2023-07-08T00:36:04;99731.56;;;20.74;100.00
10310;BME280;5200;43.236;27.986;2023-07-08T00:38:34;99715.97;;;20.64;100.00
10310;BME280;5200;43.236;27.986;2023-07-08T00:41:08;99728.69;;;20.69;100.00
10310;BME280;5200;43.236;27.986;2023-07-08T00:43:38;99726.44;;;20.66;100.00
10310;BME280;5200;43.236;27.986;2023-07-08T00:46:25;99692.16;;;20.43;100.00
10310;BME280;5200;43.236;27.986;2023-07-08T00:49:00;99706.94;;;20.45;100.00
10310;BME280;5200;43.236;27.986;2023-07-08T00:51:30;99733.22;;;20.55;100.00
10310;BME280;5200;43.236;27.986;2023-07-08T00:53:57;99713.94;;;20.53;100.00
10310;BME280;5200;43.236;27.986;2023-07-08T00:56:26;99736.31;;;20.65;100.00
10310;BME280;5200;43.236;27.986;2023-07-08T00:58:59;99736.31;;;20.65;100.00
10310;BME280;5200;43.236;27.986;2023-07-08T01:01:29;99739.44;;;20.56;100.00
10310;BME280;5200;43.236;27.986;2023-07-08T01:04:03;99712.72;;;20.36;100.00
10310;BME280;5200;43.236;27.986;2023-07-08T01:06:34;99706.13;;;20.32;100.00
10310;BME280;5200;43.236;27.986;2023-07-08T01:09:06;99734.50;;;20.46;100.00
10310;BME280;5200;43.236;27.986;2023-07-08T01:11:36;99742.28;;;20.41;100.00
10310;BME280;5200;43.236;27.986;2023-07-08T01:14:04;99740.88;;;20.38;100.00
10310;BME280;5200;43.236;27.986;2023-07-08T01:16:35;99742.28;;;20.34;100.00
10310;BME280;5200;43.236;27.986;2023-07-08T01:19:03;99744.59;;;20.31;100.00
10310;BME280;5200;43.236;27.986;2023-07-08T01:21:34;99717.69;;;20.19;100.00
10310;BME280;5200;43.236;27.986;2023-07-08T01:24:05;99733.28;;;20.22;100.00
10310;BME280;5200;43.236;27.986;2023-07-08T01:26:35;99731.41;;;20.22;100.00
10310;BME280;5200;43.236;27.986;2023-07-08T01:29:04;99737.00;;;20.14;100.00
10310;BME280;5200;43.236;27.986;2023-07-08T01:31:33;99734.13;;;20.16;100.00
10310;BME280;5200;43.236;27.986;2023-07-08T01:34:00;99713.38;;;19.98;100.00
10310;BME280;5200;43.236;27.986;2023-07-08T01:36:30;99742.75;;;20.11;100.00
10310;BME280;5200;43.236;27.986;2023-07-08T01:38:58;99754.25;;;20.12;100.00
10310;BME280;5200;43.236;27.986;2023-07-08T01:41:26;99726.34;;;19.94;100.00
10310;BME280;5200;43.236;27.986;2023-07-08T01:43:53;99725.09;;;19.97;100.00
10310;BME280;5200;43.236;27.986;2023-07-08T01:46:22;99741.50;;;20.07;100.00
10310;BME280;5200;43.236;27.986;2023-07-08T01:48:52;99757.31;;;20.15;100.00
10310;BME280;5200;43.236;27.986;2023-07-08T01:51:19;99726.53;;;19.99;100.00
10310;BME280;5200;43.236;27.986;2023-07-08T01:53:47;99734.53;;;19.99;100.00
10310;BME280;5200;43.236;27.986;2023-07-08T01:56:14;99735.34;;;20.00;100.00
10310;BME280;5200;43.236;27.986;2023-07-08T01:58:43;99739.66;;;20.01;100.00
10310;BME280;5200;43.236;27.986;2023-07-08T02:01:10;99742.31;;;20.01;100.00
10310;BME280;5200;43.236;27.986;2023-07-08T02:03:36;99744.59;;;20.04;100.00
10310;BME280;5200;43.236;27.986;2023-07-08T02:06:04;99749.31;;;20.02;100.00
10310;BME280;5200;43.236;27.986;2023-07-08T02:08:31;99748.50;;;19.95;100.00
10310;BME280;5200;43.236;27.986;2023-07-08T02:10:58;99754.47;;;19.97;100.00
10310;BME280;5200;43.236;27.986;2023-07-08T02:13:25;99744.59;;;19.91;100.00
10310;BME280;5200;43.236;27.986;2023-07-08T02:15:54;99738.25;;;19.85;100.00
10310;BME280;5200;43.236;27.986;2023-07-08T02:18:21;99731.84;;;19.79;100.00
10310;BME280;5200;43.236;27.986;2023-07-08T02:20:50;99725.88;;;19.77;100.00
10310;BME280;5200;43.236;27.986;2023-07-08T02:23:17;99745.22;;;19.93;100.00
10310;BME280;5200;43.236;27.986;2023-07-08T02:25:50;99724.66;;;19.87;100.00
10310;BME280;5200;43.236;27.986;2023-07-08T02:28:18;99709.88;;;19.77;100.00
10310;BME280;5200;43.236;27.986;2023-07-08T02:30:44;99716.88;;;19.78;100.00
10310;BME280;5200;43.236;27.986;2023-07-08T02:33:13;99706.59;;;19.75;100.00
10310;BME280;5200;43.236;27.986;2023-07-08T02:35:43;99747.88;;;19.93;100.00
10310;BME280;5200;43.236;27.986;2023-07-08T02:38:10;99739.44;;;19.89;100.00
10310;BME280;5200;43.236;27.986;2023-07-08T02:40:37;99724.88;;;19.92;100.00
10310;BME280;5200;43.236;27.986;2023-07-08T02:43:03;99732.47;;;19.88;100.00
10310;BME280;5200;43.236;27.986;2023-07-08T02:45:30;99734.53;;;19.86;100.00
10310;BME280;5200;43.236;27.986;2023-07-08T02:47:57;99738.84;;;19.94;100.00
10310;BME280;5200;43.236;27.986;2023-07-08T02:50:25;99729.19;;;19.93;100.00
10310;BME280;5200;43.236;27.986;2023-07-08T02:52:52;99735.78;;;19.97;100.00
10310;BME280;5200;43.236;27.986;2023-07-08T02:55:19;99729.59;;;19.96;100.00
10310;BME280;5200;43.236;27.986;2023-07-08T02:57:46;99739.47;;;19.96;100.00
10310;BME280;5200;43.236;27.986;2023-07-08T03:00:14;99714.81;;;19.80;100.00
10310;BME280;5200;43.236;27.986;2023-07-08T03:02:41;99735.53;;;19.92;100.00
10310;BME280;5200;43.236;27.986;2023-07-08T03:05:08;99748.50;;;19.95;100.00
10310;BME280;5200;43.236;27.986;2023-07-08T03:07:36;99697.16;;;19.79;100.00
10310;BME280;5200;43.236;27.986;2023-07-08T03:10:03;99744.78;;;19.96;100.00
10310;BME280;5200;43.236;27.986;2023-07-08T03:12:30;99751.78;;;19.97;100.00
10310;BME280;5200;43.236;27.986;2023-07-08T03:14:57;99735.16;;;19.88;100.00
10310;BME280;5200;43.236;27.986;2023-07-08T03:17:24;99737.41;;;19.98;100.00
10310;BME280;5200;43.236;27.986;2023-07-08T03:19:51;99749.72;;;19.99;100.00
10310;BME280;5200;43.236;27.986;2023-07-08T03:22:18;99734.53;;;19.79;100.00
10310;BME280;5200;43.236;27.986;2023-07-08T03:24:46;99766.59;;;19.99;100.00
10310;BME280;5200;43.236;27.986;2023-07-08T03:27:13;99754.47;;;19.97;100.00
10310;BME280;5200;43.236;27.986;2023-07-08T03:29:41;99758.75;;;19.98;100.00
10310;BME280;5200;43.236;27.986;2023-07-08T03:32:10;99756.31;;;20.03;100.00
10310;BME280;5200;43.236;27.986;2023-07-08T03:34:37;99729.81;;;19.95;100.00
10310;BME280;5200;43.236;27.986;2023-07-08T03:37:04;99735.38;;;20.13;100.00
10310;BME280;5200;43.236;27.986;2023-07-08T03:39:31;99737.19;;;20.19;100.00
10310;BME280;5200;43.236;27.986;2023-07-08T03:42:00;99741.47;;;20.34;100.00
10310;BME280;5200;43.236;27.986;2023-07-08T03:44:27;99724.41;;;20.48;100.00
10310;BME280;5200;43.236;27.986;2023-07-08T03:46:54;99748.00;;;20.84;100.00
10310;BME280;5200;43.236;27.986;2023-07-08T03:49:22;99742.91;;;20.63;100.00
10310;BME280;5200;43.236;27.986;2023-07-08T03:51:50;99744.56;;;20.57;100.00
10310;BME280;5200;43.236;27.986;2023-07-08T03:54:20;99763.47;;;20.49;100.00
10310;BME280;5200;43.236;27.986;2023-07-08T03:56:47;99735.56;;;20.25;100.00
10310;BME280;5200;43.236;27.986;2023-07-08T03:59:15;99762.25;;;20.32;100.00
10310;BME280;5200;43.236;27.986;2023-07-08T04:01:42;99762.66;;;20.35;100.00
10310;BME280;5200;43.236;27.986;2023-07-08T04:04:11;99757.13;;;20.30;100.00
10310;BME280;5200;43.236;27.986;2023-07-08T04:06:39;99769.63;;;20.36;100.00
10310;BME280;5200;43.236;27.986;2023-07-08T04:09:06;99762.84;;;20.40;100.00
10310;BME280;5200;43.236;27.986;2023-07-08T04:11:33;99743.97;;;20.42;100.00
10310;BME280;5200;43.236;27.986;2023-07-08T04:14:00;99766.13;;;20.49;100.00
10310;BME280;5200;43.236;27.986;2023-07-08T04:16:31;99740.88;;;20.32;100.00
10310;BME280;5200;43.236;27.986;2023-07-08T04:18:58;99768.59;;;20.57;100.00
10310;BME280;5200;43.236;27.986;2023-07-08T04:21:25;99754.84;;;20.60;100.00
10310;BME280;5200;43.236;27.986;2023-07-08T04:23:52;99771.88;;;20.66;100.00
10310;BME280;5200;43.236;27.986;2023-07-08T04:26:19;99773.31;;;20.75;100.00
10310;BME280;5200;43.236;27.986;2023-07-08T04:28:46;99770.19;;;20.78;100.00
10310;BME280;5200;43.236;27.986;2023-07-08T04:31:14;99753.38;;;20.64;100.00
10310;BME280;5200;43.236;27.986;2023-07-08T04:33:42;99767.34;;;20.80;100.00
10310;BME280;5200;43.236;27.986;2023-07-08T04:36:12;99756.63;;;20.86;100.00
10310;BME280;5200;43.236;27.986;2023-07-08T04:38:39;99747.56;;;20.81;100.00
10310;BME280;5200;43.236;27.986;2023-07-08T04:41:07;99740.16;;;20.83;100.00
10310;BME280;5200;43.236;27.986;2023-07-08T04:43:34;99767.34;;;20.80;100.00
10310;BME280;5200;43.236;27.986;2023-07-08T04:46:01;99763.59;;;20.87;100.00
10310;BME280;5200;43.236;27.986;2023-07-08T04:48:28;99770.56;;;20.95;100.00
10310;BME280;5200;43.236;27.986;2023-07-08T04:50:56;99780.84;;;20.98;100.00
10310;BME280;5200;43.236;27.986;2023-07-08T04:53:24;99751.00;;;21.01;100.00
10310;BME280;5200;43.236;27.986;2023-07-08T04:55:53;99769.72;;;21.01;100.00
10310;BME280;5200;43.236;27.986;2023-07-08T04:58:20;99766.00;;;21.02;100.00
10310;BME280;5200;43.236;27.986;2023-07-08T05:00:48;99763.53;;;21.07;100.00
10310;BME280;5200;43.236;27.986;2023-07-08T05:03:15;99791.00;;;21.28;100.00
10310;BME280;5200;43.236;27.986;2023-07-08T05:05:42;99786.09;;;21.25;100.00
10310;BME280;5200;43.236;27.986;2023-07-08T05:08:11;99726.09;;;21.07;100.00
10310;BME280;5200;43.236;27.986;2023-07-08T05:10:39;99781.53;;;21.32;100.00
10310;BME280;5200;43.236;27.986;2023-07-08T05:13:06;99778.69;;;21.27;100.00
10310;BME280;5200;43.236;27.986;2023-07-08T05:15:36;99751.19;;;21.06;100.00
10310;BME280;5200;43.236;27.986;2023-07-08T05:18:03;99772.53;;;21.20;100.00
10310;BME280;5200;43.236;27.986;2023-07-08T05:20:31;99763.28;;;21.16;100.00
10310;BME280;5200;43.236;27.986;2023-07-08T05:23:00;99770.09;;;21.11;100.00
10310;BME280;5200;43.236;27.986;2023-07-08T05:25:32;99748.94;;;21.03;100.00
10310;BME280;5200;43.236;27.986;2023-07-08T05:28:08;99760.81;;;21.14;100.00
10310;BME280;5200;43.236;27.986;2023-07-08T05:30:41;99774.56;;;21.24;100.00
10310;BME280;5200;43.236;27.986;2023-07-08T05:33:08;99760.56;;;21.29;100.00
10310;BME280;5200;43.236;27.986;2023-07-08T05:35:35;99759.06;;;21.40;100.00
10310;BME280;5200;43.236;27.986;2023-07-08T05:38:02;99775.53;;;21.43;100.00
10310;BME280;5200;43.236;27.986;2023-07-08T05:40:31;99758.03;;;21.47;100.00
10310;BME280;5200;43.236;27.986;2023-07-08T05:42:58;99759.66;;;21.48;100.00
10310;BME280;5200;43.236;27.986;2023-07-08T05:45:25;99769.28;;;21.56;100.00
10310;BME280;5200;43.236;27.986;2023-07-08T05:47:52;99751.31;;;21.63;100.00
10310;BME280;5200;43.236;27.986;2023-07-08T05:50:21;99757.63;;;21.76;100.00
10310;BME280;5200;43.236;27.986;2023-07-08T05:52:47;99768.94;;;21.78;100.00
10310;BME280;5200;43.236;27.986;2023-07-08T05:55:14;99760.25;;;21.82;100.00
10310;BME280;5200;43.236;27.986;2023-07-08T05:57:43;99738.81;;;21.82;100.00
10310;BME280;5200;43.236;27.986;2023-07-08T06:00:10;99745.06;;;21.76;100.00
10310;BME280;5200;43.236;27.986;2023-07-08T06:02:37;99759.34;;;21.95;100.00
10310;BME280;5200;43.236;27.986;2023-07-08T06:05:05;99749.50;;;21.89;100.00
10310;BME280;5200;43.236;27.986;2023-07-08T06:07:32;99760.66;;;21.86;100.00
10310;BME280;5200;43.236;27.986;2023-07-08T06:09:59;99734.69;;;21.61;100.00
10310;BME280;5200;43.236;27.986;2023-07-08T06:12:26;99755.91;;;21.56;100.00
10310;BME280;5200;43.236;27.986;2023-07-08T06:14:57;99764.97;;;21.55;100.00
10310;BME280;5200;43.236;27.986;2023-07-08T06:17:23;99773.44;;;21.52;100.00
10310;BME280;5200;43.236;27.986;2023-07-08T06:19:50;99757.38;;;21.52;100.00
10310;BME280;5200;43.236;27.986;2023-07-08T06:22:17;99762.31;;;21.48;100.00
10310;BME280;5200;43.236;27.986;2023-07-08T06:24:44;99770.78;;;21.45;100.00
10310;BME280;5200;43.236;27.986;2023-07-08T06:27:12;99723.06;;;21.36;100.00
10310;BME280;5200;43.236;27.986;2023-07-08T06:29:40;99754.31;;;21.48;100.00
10310;BME280;5200;43.236;27.986;2023-07-08T06:32:09;99771.41;;;21.47;100.00
10310;BME280;5200;43.236;27.986;2023-07-08T06:34:35;99770.75;;;21.52;100.00
10310;BME280;5200;43.236;27.986;2023-07-08T06:37:03;99773.56;;;21.64;100.00
10310;BME280;5200;43.236;27.986;2023-07-08T06:39:30;99750.88;;;21.73;100.00
10310;BME280;5200;43.236;27.986;2023-07-08T06:41:56;99775.94;;;21.79;100.00
10310;BME280;5200;43.236;27.986;2023-07-08T06:44:23;99769.78;;;21.78;100.00
10310;BME280;5200;43.236;27.986;2023-07-08T06:46:54;99786.72;;;21.97;99.44
10310;BME280;5200;43.236;27.986;2023-07-08T06:49:23;99764.50;;;21.97;98.62
10310;BME280;5200;43.236;27.986;2023-07-08T06:51:50;99788.91;;;22.07;99.24
10310;BME280;5200;43.236;27.986;2023-07-08T06:54:16;99775.69;;;22.12;98.08
10310;BME280;5200;43.236;27.986;2023-07-08T06:56:44;99788.81;;;22.20;97.73
10310;BME280;5200;43.236;27.986;2023-07-08T06:59:11;99780.53;;;22.28;97.58
10310;BME280;5200;43.236;27.986;2023-07-08T07:01:37;99771.72;;;22.46;96.40
10310;BME280;5200;43.236;27.986;2023-07-08T07:04:07;99797.78;;;22.57;96.37
10310;BME280;5200;43.236;27.986;2023-07-08T07:06:36;99811.34;;;22.63;96.18
10310;BME280;5200;43.236;27.986;2023-07-08T07:09:02;99807.78;;;22.69;95.88
10310;BME280;5200;43.236;27.986;2023-07-08T07:11:29;99806.84;;;22.82;95.41
10310;BME280;5200;43.236;27.986;2023-07-08T07:13:56;99790.34;;;22.78;95.61
10310;BME280;5200;43.236;27.986;2023-07-08T07:16:23;99824.28;;;23.09;94.93
10310;BME280;5200;43.236;27.986;2023-07-08T07:18:50;99821.31;;;23.17;93.78
10310;BME280;5200;43.236;27.986;2023-07-08T07:21:17;99823.69;;;23.26;93.42
10310;BME280;5200;43.236;27.986;2023-07-08T07:23:46;99832.84;;;23.18;94.47
10310;BME280;5200;43.236;27.986;2023-07-08T07:26:13;99827.06;;;23.03;95.28
10310;BME280;5200;43.236;27.986;2023-07-08T07:28:40;99831.72;;;22.89;96.85
10310;BME280;5200;43.236;27.986;2023-07-08T07:31:07;99803.72;;;22.59;98.20
10310;BME280;5200;43.236;27.986;2023-07-08T07:33:36;99826.31;;;22.70;99.33
10310;BME280;5200;43.236;27.986;2023-07-08T07:36:03;99829.31;;;22.80;99.56
10310;BME280;5200;43.236;27.986;2023-07-08T07:38:32;99815.47;;;22.84;98.75
10310;BME280;5200;43.236;27.986;2023-07-08T07:41:01;99829.91;;;22.83;99.35
10310;BME280;5200;43.236;27.986;2023-07-08T07:43:31;99826.28;;;22.77;98.71
10310;BME280;5200;43.236;27.986;2023-07-08T07:45:58;99820.66;;;22.60;99.53
10310;BME280;5200;43.236;27.986;2023-07-08T07:48:25;99829.28;;;22.62;100.00
10310;BME280;5200;43.236;27.986;2023-07-08T07:50:52;99809.56;;;22.75;100.00
10310;BME280;5200;43.236;27.986;2023-07-08T07:53:19;99828.53;;;22.98;97.52
10310;BME280;5200;43.236;27.986;2023-07-08T07:55:46;99819.06;;;22.96;93.84
10310;BME280;5200;43.236;27.986;2023-07-08T07:58:15;99814.91;;;23.00;93.44
10310;BME280;5200;43.236;27.986;2023-07-08T08:00:41;99799.69;;;22.94;88.51
10310;BME280;5200;43.236;27.986;2023-07-08T08:03:08;99818.72;;;22.86;88.41
10310;BME280;5200;43.236;27.986;2023-07-08T08:05:35;99826.22;;;22.84;88.46
10310;BME280;5200;43.236;27.986;2023-07-08T08:08:02;99819.06;;;22.96;87.51
10310;BME280;5200;43.236;27.986;2023-07-08T08:10:29;99809.44;;;23.07;85.70
10310;BME280;5200;43.236;27.986;2023-07-08T08:12:58;99796.78;;;22.95;85.44
10310;BME280;5200;43.236;27.986;2023-07-08T08:15:26;99790.13;;;23.16;85.05
10310;BME280;5200;43.236;27.986;2023-07-08T08:17:53;99814.72;;;23.32;84.45
10310;BME280;5200;43.236;27.986;2023-07-08T08:20:22;99787.16;;;23.25;85.17
10310;BME280;5200;43.236;27.986;2023-07-08T08:22:50;99808.97;;;23.47;84.25
10310;BME280;5200;43.236;27.986;2023-07-08T08:25:18;99827.53;;;23.48;84.42
10310;BME280;5200;43.236;27.986;2023-07-08T08:27:46;99829.47;;;23.59;84.09
10310;BME280;5200;43.236;27.986;2023-07-08T08:30:13;99828.91;;;23.69;84.20
10310;BME280;5200;43.236;27.986;2023-07-08T08:32:44;99829.81;;;23.63;84.82
10310;BME280;5200;43.236;27.986;2023-07-08T08:35:11;99828.09;;;23.69;83.65
10310;BME280;5200;43.236;27.986;2023-07-08T08:37:38;99855.25;;;23.79;83.42
10310;BME280;5200;43.236;27.986;2023-07-08T08:40:07;99857.97;;;23.91;83.83
10310;BME280;5200;43.236;27.986;2023-07-08T08:42:40;99868.63;;;23.97;81.33
10310;BME280;5200;43.236;27.986;2023-07-08T08:45:12;99874.31;;;23.89;82.25
10310;BME280;5200;43.236;27.986;2023-07-08T08:47:44;99853.38;;;23.79;82.55
10310;BME280;5200;43.236;27.986;2023-07-08T08:50:25;99865.16;;;24.09;81.29
10310;BME280;5200;43.236;27.986;2023-07-08T08:52:53;99860.22;;;24.05;81.12
10310;BME280;5200;43.236;27.986;2023-07-08T08:55:23;99871.25;;;24.16;80.98
10310;BME280;5200;43.236;27.986;2023-07-08T08:57:59;99871.00;;;24.17;79.47
10310;BME280;5200;43.236;27.986;2023-07-08T09:00:31;99866.63;;;23.93;78.24
10310;BME280;5200;43.236;27.986;2023-07-08T09:03:16;99878.91;;;24.00;78.74
10310;BME280;5200;43.236;27.986;2023-07-08T09:05:45;99865.16;;;24.09;78.22
10310;BME280;5200;43.236;27.986;2023-07-08T09:08:15;99868.44;;;24.11;77.81
10310;BME280;5200;43.236;27.986;2023-07-08T09:10:45;99874.06;;;24.21;76.50
10310;BME280;5200;43.236;27.986;2023-07-08T09:13:18;99853.28;;;24.40;74.66
10310;BME280;5200;43.236;27.986;2023-07-08T09:15:48;99867.25;;;24.72;72.98
10310;BME280;5200;43.236;27.986;2023-07-08T09:21:13;99858.47;;;25.12;70.11
10310;BME280;5200;43.236;27.986;2023-07-08T09:23:43;99860.59;;;24.98;71.18
10310;BME280;5200;43.236;27.986;2023-07-08T09:26:16;99856.03;;;24.87;72.23
10310;BME280;5200;43.236;27.986;2023-07-08T09:28:45;99818.47;;;24.80;72.86
10310;BME280;5200;43.236;27.986;2023-07-08T09:31:21;99858.47;;;25.12;69.57
10310;BME280;5200;43.236;27.986;2023-07-08T09:33:52;99850.59;;;25.10;68.92
10310;BME280;5200;43.236;27.986;2023-07-08T09:36:23;99856.00;;;25.10;69.39
10310;BME280;5200;43.236;27.986;2023-07-08T09:38:51;99851.09;;;25.07;69.42
10310;BME280;5200;43.236;27.986;2023-07-08T09:41:32;99866.78;;;24.99;69.24
10310;BME280;5200;43.236;27.986;2023-07-08T09:44:18;99859.19;;;24.96;70.27
10310;BME280;5200;43.236;27.986;2023-07-08T09:46:48;99866.69;;;24.82;70.70
10310;BME280;5200;43.236;27.986;2023-07-08T09:49:20;99858.50;;;24.65;71.50
10310;BME280;5200;43.236;27.986;2023-07-08T09:51:48;99866.56;;;24.65;71.35
10310;BME280;5200;43.236;27.986;2023-07-08T09:54:16;99854.97;;;24.53;72.45
10310;BME280;5200;43.236;27.986;2023-07-08T09:56:44;99862.91;;;24.71;70.71
10310;BME280;5200;43.236;27.986;2023-07-08T09:59:14;99864.56;;;24.72;70.06
10310;BME280;5200;43.236;27.986;2023-07-08T10:01:42;99869.00;;;24.78;69.44
10310;BME280;5200;43.236;27.986;2023-07-08T10:04:11;99879.75;;;24.78;69.81
10310;BME280;5200;43.236;27.986;2023-07-08T10:06:43;99865.50;;;24.89;69.48
10310;BME280;5200;43.236;27.986;2023-07-08T10:09:14;99865.97;;;24.75;69.53
10310;BME280;5200;43.236;27.986;2023-07-08T10:11:48;99876.03;;;24.79;69.91
10310;BME280;5200;43.236;27.986;2023-07-08T10:14:24;99858.94;;;24.50;70.02
10310;BME280;5200;43.236;27.986;2023-07-08T10:16:52;99884.81;;;24.75;68.72
10310;BME280;5200;43.236;27.986;2023-07-08T10:19:20;99893.91;;;24.62;69.51
10310;BME280;5200;43.236;27.986;2023-07-08T10:21:55;99894.72;;;24.51;70.05
10310;BME280;5200;43.236;27.986;2023-07-08T10:24:33;99903.25;;;24.47;70.15
10310;BME280;5200;43.236;27.986;2023-07-08T10:27:17;99891.63;;;24.35;70.60
10310;BME280;5200;43.236;27.986;2023-07-08T10:29:53;99886.19;;;24.12;70.94
10310;BME280;5200;43.236;27.986;2023-07-08T10:32:28;99889.66;;;24.00;71.74
10310;BME280;5200;43.236;27.986;2023-07-08T10:35:08;99908.16;;;24.09;72.11
10310;BME280;5200;43.236;27.986;2023-07-08T10:37:45;99884.69;;;24.16;71.98
10310;BME280;5200;43.236;27.986;2023-07-08T10:40:39;99876.88;;;24.26;71.96
10310;BME280;5200;43.236;27.986;2023-07-08T10:43:22;99882.06;;;24.39;71.76
10310;BME280;5200;43.236;27.986;2023-07-08T10:45:55;99883.22;;;24.43;70.85
10310;BME280;5200;43.236;27.986;2023-07-08T10:48:38;99864.84;;;24.40;71.83
10310;BME280;5200;43.236;27.986;2023-07-08T10:51:16;99873.44;;;24.61;69.83
10310;BME280;5200;43.236;27.986;2023-07-08T10:54:02;99841.47;;;24.41;70.63
10310;BME280;5200;43.236;27.986;2023-07-08T10:56:38;99849.53;;;24.29;71.18
10310;BME280;5200;43.236;27.986;2023-07-08T10:59:33;99848.25;;;24.43;70.48
10310;BME280;5200;43.236;27.986;2023-07-08T11:05:17;99871.81;;;24.83;69.34
10310;BME280;5200;43.236;27.986;2023-07-08T11:07:53;99875.06;;;25.09;68.04
10310;BME280;5200;43.236;27.986;2023-07-08T11:10:28;99843.75;;;24.79;68.67
10310;BME280;5200;43.236;27.986;2023-07-08T11:13:03;99825.50;;;24.81;67.25
10310;BME280;5200;43.236;27.986;2023-07-08T11:15:36;99822.81;;;24.93;66.97
10310;BME280;5200;43.236;27.986;2023-07-08T11:18:11;99821.97;;;24.93;67.34
10310;BME280;5200;43.236;27.986;2023-07-08T11:20:45;99859.75;;;25.09;67.18
10310;BME280;5200;43.236;27.986;2023-07-08T11:23:22;99864.78;;;24.82;67.13
10310;BME280;5200;43.236;27.986;2023-07-08T11:26:03;99826.28;;;24.35;68.97
10310;BME280;5200;43.236;27.986;2023-07-08T11:28:31;99843.75;;;24.02;71.96
10310;BME280;5200;43.236;27.986;2023-07-08T11:31:01;99845.75;;;24.07;73.96
10310;BME280;5200;43.236;27.986;2023-07-08T11:33:29;99836.44;;;24.21;70.91
10310;BME280;5200;43.236;27.986;2023-07-08T11:35:59;99800.28;;;23.93;72.18
10310;BME280;5200;43.236;27.986;2023-07-08T11:38:31;99833.75;;;24.21;71.49
10310;BME280;5200;43.236;27.986;2023-07-08T11:41:01;99873.94;;;24.16;71.98
10310;BME280;5200;43.236;27.986;2023-07-08T11:43:36;99839.88;;;23.98;72.60
10310;BME280;5200;43.236;27.986;2023-07-08T11:46:06;99827.63;;;23.72;74.13
10310;BME280;5200;43.236;27.986;2023-07-08T11:48:38;99805.72;;;23.75;74.05
10310;BME280;5200;43.236;27.986;2023-07-08T11:51:08;99845.59;;;23.90;73.09
10310;BME280;5200;43.236;27.986;2023-07-08T11:53:38;99850.13;;;23.89;73.31
10310;BME280;5200;43.236;27.986;2023-07-08T11:56:23;99855.31;;;24.02;73.28
10310;BME280;5200;43.236;27.986;2023-07-08T11:58:57;99833.94;;;24.08;71.99
10310;BME280;5200;43.236;27.986;2023-07-08T12:01:27;99835.00;;;24.07;71.68
10310;BME280;5200;43.236;27.986;2023-07-08T12:03:59;99850.19;;;24.13;70.91
10310;BME280;5200;43.236;27.986;2023-07-08T12:06:47;99848.56;;;24.12;71.41
10310;BME280;5200;43.236;27.986;2023-07-08T12:09:20;99841.88;;;24.02;70.06
10310;BME280;5200;43.236;27.986;2023-07-08T12:11:53;99832.19;;;23.71;71.65
10310;BME280;5200;43.236;27.986;2023-07-08T12:14:22;99866.38;;;23.82;72.29
10310;BME280;5200;43.236;27.986;2023-07-08T12:16:49;99812.63;;;23.52;72.76
10310;BME280;5200;43.236;27.986;2023-07-08T12:19:18;99865.56;;;23.94;71.61
10310;BME280;5200;43.236;27.986;2023-07-08T12:21:47;99825.81;;;23.84;70.78
10310;BME280;5200;43.236;27.986;2023-07-08T12:24:14;99837.69;;;24.07;70.55
10310;BME280;5200;43.236;27.986;2023-07-08T12:26:44;99823.97;;;23.96;69.62
10310;BME280;5200;43.236;27.986;2023-07-08T12:29:13;99854.88;;;24.17;69.88
10310;BME280;5200;43.236;27.986;2023-07-08T12:31:41;99839.13;;;24.33;67.99
10310;BME280;5200;43.236;27.986;2023-07-08T12:34:12;99851.06;;;24.37;67.56
10310;BME280;5200;43.236;27.986;2023-07-08T12:36:41;99848.03;;;24.45;66.70
10310;BME280;5200;43.236;27.986;2023-07-08T12:39:11;99821.94;;;24.34;66.78
10310;BME280;5200;43.236;27.986;2023-07-08T12:41:42;99853.41;;;24.45;65.45
10310;BME280;5200;43.236;27.986;2023-07-08T12:44:17;99845.56;;;24.32;66.61
10310;BME280;5200;43.236;27.986;2023-07-08T12:46:46;99861.69;;;24.43;65.90
10310;BME280;5200;43.236;27.986;2023-07-08T12:49:14;99803.00;;;24.17;65.22
10310;BME280;5200;43.236;27.986;2023-07-08T12:51:43;99860.00;;;24.49;64.43
10310;BME280;5200;43.236;27.986;2023-07-08T12:54:13;99831.34;;;24.55;63.38
10310;BME280;5200;43.236;27.986;2023-07-08T12:56:42;99853.81;;;24.72;64.52
10310;BME280;5200;43.236;27.986;2023-07-08T12:59:12;99851.94;;;24.84;63.63
10310;BME280;5200;43.236;27.986;2023-07-08T13:01:43;99841.13;;;25.08;62.56
10310;BME280;5200;43.236;27.986;2023-07-08T13:04:12;99859.38;;;25.06;62.17
10310;BME280;5200;43.236;27.986;2023-07-08T13:06:40;99837.41;;;24.74;63.00
10310;BME280;5200;43.236;27.986;2023-07-08T13:09:18;99846.09;;;24.64;64.12
10310;BME280;5200;43.236;27.986;2023-07-08T13:11:50;99874.25;;;24.85;64.92
10310;BME280;5200;43.236;27.986;2023-07-08T13:14:19;99856.13;;;24.57;63.34